Time;durP1;ratioP1;P1;durP2;ratioP2;P2;SDS_P1;SDS_P2;PMS_P1;PMS_P2;Temp;Humidity;BMP_temperature;BMP_pressure;BME280_temperature;BME280_humidity;BME280_pressure;Samples;Min_cycle;Max_cycle;Signal;HPM_P1;HPM_P2
2021/12/11 00:00:44;;;;;;;51.73;25.77;;;3.60;99.90;;;;;;5060024;28;20971;-62
2021/12/11 00:03:17;;;;;;;52.50;26.23;;;3.50;99.90;;;;;;5068384;28;20504;-62
2021/12/11 00:05:52;;;;;;;52.67;26.93;;;3.50;99.90;;;;;;5065643;28;20478;-62
2021/12/11 00:08:24;;;;;;;56.43;27.53;;;3.60;99.90;;;;;;5070098;28;21067;-62
2021/12/11 00:10:58;;;;;;;48.00;27.10;;;3.50;99.90;;;;;;5067667;28;20541;-62
2021/12/11 00:13:29;;;;;;;47.17;23.53;;;3.50;99.90;;;;;;5071117;28;20483;-62
2021/12/11 00:15:58;;;;;;;51.87;26.00;;;3.60;99.90;;;;;;5068125;28;20478;-62
2021/12/11 00:18:30;;;;;;;53.40;24.93;;;4.00;99.90;;;;;;5069591;28;20979;-62
2021/12/11 00:21:03;;;;;;;53.10;25.00;;;4.40;99.90;;;;;;5067223;28;21044;-62
2021/12/11 00:23:36;;;;;;;59.23;28.97;;;4.50;99.90;;;;;;5070037;28;20554;-61
2021/12/11 00:26:08;;;;;;;53.57;28.83;;;4.20;99.90;;;;;;5073450;28;20543;-61
2021/12/11 00:28:45;;;;;;;49.67;26.17;;;3.90;99.90;;;;;;5078804;28;20555;-62
2021/12/11 00:31:14;;;;;;;47.17;23.00;;;4.20;99.90;;;;;;5069319;28;20485;-62
2021/12/11 00:33:42;;;;;;;50.40;27.43;;;4.20;99.90;;;;;;5071164;28;20501;-62
2021/12/11 00:36:12;;;;;;;48.67;25.53;;;4.10;99.90;;;;;;5071143;28;20478;-62
2021/12/11 00:38:41;;;;;;;51.23;26.40;;;4.20;99.90;;;;;;5064917;28;20507;-62
2021/12/11 00:41:14;;;;;;;51.33;27.00;;;4.10;99.90;;;;;;5078669;28;20553;-62
2021/12/11 00:43:45;;;;;;;47.53;26.83;;;3.80;99.90;;;;;;5066661;28;20552;-62
2021/12/11 00:46:24;;;;;;;53.33;28.67;;;3.70;99.90;;;;;;5070784;28;20502;-62
2021/12/11 00:48:52;;;;;;;45.97;25.13;;;3.60;99.90;;;;;;5074112;28;20533;-62
2021/12/11 00:51:23;;;;;;;43.17;23.90;;;3.40;99.90;;;;;;5069220;28;20475;-62
2021/12/11 00:53:53;;;;;;;42.23;21.97;;;3.30;99.90;;;;;;5070676;28;20564;-62
2021/12/11 00:56:26;;;;;;;44.37;24.03;;;3.40;99.90;;;;;;5073615;28;20591;-62
2021/12/11 00:58:56;;;;;;;41.90;23.00;;;3.30;99.90;;;;;;5075585;28;20562;-62
2021/12/11 01:01:27;;;;;;;42.17;22.67;;;3.30;99.90;;;;;;5072267;28;20939;-62
2021/12/11 01:03:59;;;;;;;34.43;17.93;;;3.30;99.90;;;;;;5074142;28;20480;-62
2021/12/11 01:06:32;;;;;;;42.83;20.60;;;3.60;99.90;;;;;;5069568;28;20610;-62
2021/12/11 01:09:07;;;;;;;49.90;24.60;;;4.00;99.90;;;;;;5076843;28;20505;-63
2021/12/11 01:11:40;;;;;;;45.23;23.43;;;3.70;99.90;;;;;;5077638;28;20474;-62
2021/12/11 01:14:22;;;;;;;42.27;20.53;;;3.70;99.90;;;;;;5071180;28;20483;-62
2021/12/11 01:17:00;;;;;;;40.93;20.73;;;3.70;99.90;;;;;;5070702;28;21285;-62
2021/12/11 01:19:36;;;;;;;50.47;22.47;;;3.70;99.90;;;;;;5068035;28;20526;-62
2021/12/11 01:22:11;;;;;;;49.57;26.03;;;4.30;99.90;;;;;;5068889;28;20500;-63
2021/12/11 01:24:44;;;;;;;47.43;24.03;;;4.20;99.90;;;;;;5060073;28;20515;-60
2021/12/11 01:27:16;;;;;;;48.27;24.13;;;4.20;99.90;;;;;;5070441;28;20516;-61
2021/12/11 01:29:46;;;;;;;49.90;25.63;;;3.80;99.90;;;;;;5059900;28;20578;-62
2021/12/11 01:32:15;;;;;;;43.80;23.50;;;3.60;99.90;;;;;;5070520;28;20714;-62
2021/12/11 01:34:45;;;;;;;43.13;23.53;;;3.50;99.90;;;;;;5078112;28;21084;-62
2021/12/11 01:37:15;;;;;;;44.83;23.13;;;3.40;99.90;;;;;;5069834;28;20472;-62
2021/12/11 01:39:44;;;;;;;39.57;20.30;;;3.40;99.90;;;;;;5075361;28;20566;-62
2021/12/11 01:42:17;;;;;;;51.03;25.30;;;3.80;99.90;;;;;;5071949;28;20481;-63
2021/12/11 01:44:48;;;;;;;41.10;22.27;;;3.60;99.90;;;;;;5070424;28;20474;-62
2021/12/11 01:47:20;;;;;;;39.03;19.80;;;3.50;99.90;;;;;;5067475;28;20992;-62
2021/12/11 01:49:53;;;;;;;46.50;22.30;;;3.60;99.90;;;;;;5068379;28;20532;-62
2021/12/11 01:52:33;;;;;;;48.40;23.40;;;3.90;99.90;;;;;;5066994;28;20561;-62
2021/12/11 01:55:06;;;;;;;56.60;26.00;;;3.90;99.90;;;;;;5070779;28;20472;-62
2021/12/11 01:57:36;;;;;;;49.67;23.53;;;3.70;99.90;;;;;;5068053;28;20575;-62
2021/12/11 02:00:10;;;;;;;45.13;22.00;;;3.60;99.90;;;;;;5076649;28;21012;-62
2021/12/11 02:02:42;;;;;;;44.67;24.90;;;3.70;99.90;;;;;;5059495;28;20481;-60
2021/12/11 02:05:12;;;;;;;46.43;25.00;;;3.40;99.90;;;;;;5071459;28;20893;-62
2021/12/11 02:07:44;;;;;;;45.03;23.70;;;3.40;99.90;;;;;;5071602;28;20476;-62
2021/12/11 02:10:19;;;;;;;44.30;23.73;;;3.30;99.90;;;;;;5072214;28;20485;-62
2021/12/11 02:12:49;;;;;;;47.13;24.20;;;3.20;99.90;;;;;;5069092;28;20605;-62
2021/12/11 02:15:24;;;;;;;46.43;23.63;;;3.40;99.90;;;;;;5072219;28;20567;-62
2021/12/11 02:17:59;;;;;;;39.97;22.87;;;3.20;99.90;;;;;;5069112;28;20484;-63
2021/12/11 02:20:35;;;;;;;39.00;23.30;;;3.10;99.90;;;;;;5070698;28;20532;-62
2021/12/11 02:23:06;;;;;;;48.73;23.90;;;3.10;99.90;;;;;;5069948;28;20476;-62
2021/12/11 02:25:39;;;;;;;41.40;23.73;;;3.30;99.90;;;;;;5067685;28;21031;-62
2021/12/11 02:28:12;;;;;;;44.20;23.07;;;3.20;99.90;;;;;;5066207;28;20481;-62
2021/12/11 02:30:45;;;;;;;47.13;25.13;;;3.20;99.90;;;;;;5068777;28;20563;-62
2021/12/11 02:33:17;;;;;;;44.53;23.63;;;3.10;99.90;;;;;;5067523;28;20483;-61
2021/12/11 02:35:50;;;;;;;45.07;24.07;;;3.10;99.90;;;;;;5064407;28;20501;-62
2021/12/11 02:38:23;;;;;;;44.40;22.30;;;3.10;99.90;;;;;;5072398;28;20479;-62
2021/12/11 02:40:55;;;;;;;42.33;22.43;;;3.30;99.90;;;;;;5077792;28;20505;-62
2021/12/11 02:43:28;;;;;;;49.17;24.70;;;3.50;99.90;;;;;;5076668;28;20560;-62
2021/12/11 02:46:06;;;;;;;45.50;23.73;;;3.50;99.90;;;;;;5066714;28;20483;-62
2021/12/11 02:48:38;;;;;;;45.53;22.37;;;3.30;99.90;;;;;;5074061;28;20482;-62
2021/12/11 02:51:12;;;;;;;49.03;23.97;;;3.90;99.90;;;;;;5076318;28;20919;-62
2021/12/11 02:53:47;;;;;;;46.30;23.20;;;3.80;99.90;;;;;;5067634;28;20499;-62
2021/12/11 02:56:19;;;;;;;46.87;25.07;;;4.00;99.90;;;;;;5073170;28;20478;-62
2021/12/11 02:58:52;;;;;;;45.30;23.67;;;3.70;99.90;;;;;;5077624;28;20502;-62
2021/12/11 03:01:27;;;;;;;43.27;21.03;;;3.60;99.90;;;;;;5076760;28;20510;-62
2021/12/11 03:04:05;;;;;;;46.57;23.93;;;3.80;99.90;;;;;;5076449;28;20982;-62
2021/12/11 03:06:40;;;;;;;51.87;25.17;;;3.60;99.90;;;;;;5068640;28;20511;-62
2021/12/11 03:09:11;;;;;;;41.00;21.50;;;3.60;99.90;;;;;;5073398;28;20571;-61
2021/12/11 03:11:39;;;;;;;45.07;24.47;;;3.90;99.90;;;;;;5073825;28;20678;-61
2021/12/11 03:14:12;;;;;;;41.77;23.10;;;4.00;99.90;;;;;;5079725;28;20471;-62
2021/12/11 03:16:42;;;;;;;41.83;22.17;;;3.70;99.90;;;;;;5061290;28;20475;-61
2021/12/11 03:19:15;;;;;;;35.37;19.67;;;3.50;99.90;;;;;;5076599;28;20468;-62
2021/12/11 03:21:45;;;;;;;41.80;21.40;;;3.20;99.90;;;;;;5073802;28;20476;-61
2021/12/11 03:24:15;;;;;;;38.60;20.90;;;3.00;99.90;;;;;;5073846;28;20480;-62
2021/12/11 03:26:46;;;;;;;41.43;21.30;;;3.00;99.90;;;;;;5069775;28;20552;-62
2021/12/11 03:29:15;;;;;;;40.90;21.57;;;2.80;99.90;;;;;;5075075;28;20934;-62
2021/12/11 03:31:44;;;;;;;42.73;22.87;;;2.90;99.90;;;;;;5074354;28;20467;-62
2021/12/11 03:34:15;;;;;;;42.20;22.53;;;2.80;99.90;;;;;;5076714;28;20508;-61
2021/12/11 03:36:44;;;;;;;40.17;21.20;;;2.80;99.90;;;;;;5072033;28;20474;-62
2021/12/11 03:39:16;;;;;;;43.73;23.40;;;2.80;99.90;;;;;;5079486;28;20823;-62
2021/12/11 03:41:46;;;;;;;40.10;21.80;;;2.80;99.90;;;;;;5067150;28;20482;-62
2021/12/11 03:44:15;;;;;;;41.50;21.97;;;2.80;99.90;;;;;;5073216;28;20477;-62
2021/12/11 03:46:46;;;;;;;39.10;20.10;;;2.90;99.90;;;;;;5069548;28;20478;-62
2021/12/11 03:49:18;;;;;;;33.83;18.60;;;2.80;99.90;;;;;;5073916;28;21055;-62
2021/12/11 03:51:50;;;;;;;47.03;23.27;;;2.90;99.90;;;;;;5070210;28;20922;-62
2021/12/11 03:54:24;;;;;;;38.97;21.50;;;3.30;99.90;;;;;;5074388;28;21009;-62
2021/12/11 03:56:52;;;;;;;44.63;22.27;;;3.70;99.90;;;;;;5071888;28;20560;-62
2021/12/11 03:59:21;;;;;;;42.33;21.30;;;3.70;99.90;;;;;;5072719;28;20465;-62
2021/12/11 04:01:52;;;;;;;50.80;23.90;;;3.90;99.90;;;;;;5067029;28;20566;-62
2021/12/11 04:04:24;;;;;;;53.13;25.33;;;4.00;99.90;;;;;;5070398;28;20492;-62
2021/12/11 04:06:52;;;;;;;48.93;24.53;;;4.00;99.90;;;;;;5073439;28;20560;-60
2021/12/11 04:09:22;;;;;;;48.03;22.87;;;4.00;99.90;;;;;;5076061;28;20892;-63
2021/12/11 04:11:52;;;;;;;45.83;24.33;;;4.00;99.90;;;;;;5073616;28;20475;-62
2021/12/11 04:14:23;;;;;;;44.00;23.07;;;3.90;99.90;;;;;;5077224;28;20494;-62
2021/12/11 04:16:53;;;;;;;50.90;24.27;;;3.80;99.90;;;;;;5076730;28;20491;-62
2021/12/11 04:19:22;;;;;;;54.27;27.23;;;3.80;99.90;;;;;;5077537;28;21064;-62
2021/12/11 04:21:51;;;;;;;47.90;25.77;;;3.60;99.90;;;;;;5067675;28;20471;-62
2021/12/11 04:24:23;;;;;;;40.33;21.63;;;3.30;99.90;;;;;;5078504;28;20482;-62
2021/12/11 04:26:52;;;;;;;46.87;21.80;;;3.30;99.90;;;;;;5072279;28;20877;-62
2021/12/11 04:29:21;;;;;;;45.73;25.70;;;3.70;99.90;;;;;;5075121;28;20573;-62
2021/12/11 04:31:51;;;;;;;43.05;28.13;;;3.40;99.90;;;;;;5064343;28;20431;-62
2021/12/11 04:34:23;;;;;;;46.70;24.07;;;3.20;99.90;;;;;;5070487;28;20277;-62
2021/12/11 04:36:55;;;;;;;41.83;23.70;;;3.10;99.90;;;;;;5072429;28;21077;-62
2021/12/11 04:39:28;;;;;;;39.70;23.27;;;3.10;99.90;;;;;;5075790;28;20467;-62
2021/12/11 04:42:01;;;;;;;39.67;22.47;;;3.00;99.90;;;;;;5074287;28;21038;-62
2021/12/11 04:44:36;;;;;;;40.77;20.43;;;3.20;99.90;;;;;;5073673;28;20560;-62
2021/12/11 04:47:09;;;;;;;45.30;23.17;;;3.40;99.90;;;;;;5067230;28;21419;-62
2021/12/11 04:49:43;;;;;;;47.13;25.10;;;3.50;99.90;;;;;;5066692;28;20485;-62
2021/12/11 04:52:18;;;;;;;43.27;22.83;;;3.60;99.90;;;;;;5069917;28;20479;-62
2021/12/11 04:55:01;;;;;;;43.27;22.50;;;3.30;99.90;;;;;;5068702;28;20476;-62
2021/12/11 05:00:30;;;;;;;40.13;22.60;;;3.40;99.90;;;;;;5069699;28;20480;-62
2021/12/11 05:03:29;;;;;;;39.80;20.90;;;3.40;99.90;;;;;;5069709;28;20495;-62
2021/12/11 05:06:19;;;;;;;50.17;25.17;;;3.80;99.90;;;;;;5073008;28;20495;-62
2021/12/11 05:11:40;;;;;;;45.30;24.03;;;3.50;99.90;;;;;;5064290;28;20694;-62
2021/12/11 05:14:13;;;;;;;42.57;24.37;;;3.70;99.90;;;;;;5075844;28;20476;-62
2021/12/11 05:16:42;;;;;;;48.20;23.97;;;3.60;99.90;;;;;;5064103;28;20510;-62
2021/12/11 05:19:11;;;;;;;44.10;21.50;;;3.20;99.90;;;;;;5068584;28;20539;-62
2021/12/11 05:21:41;;;;;;;42.93;23.07;;;3.40;99.90;;;;;;5065867;28;20469;-63
2021/12/11 05:24:10;;;;;;;40.10;23.00;;;3.30;99.90;;;;;;5071996;28;20483;-62
2021/12/11 05:26:40;;;;;;;41.40;22.30;;;3.30;99.90;;;;;;5069778;28;20477;-62
2021/12/11 05:29:08;;;;;;;45.30;24.77;;;3.60;99.90;;;;;;5066554;28;20520;-62
2021/12/11 05:31:37;;;;;;;44.60;22.83;;;3.50;99.90;;;;;;5065542;28;20690;-62
2021/12/11 05:34:06;;;;;;;41.83;22.93;;;3.30;99.90;;;;;;5067723;28;20516;-62
2021/12/11 05:36:36;;;;;;;44.13;23.93;;;3.10;99.90;;;;;;5068583;28;20468;-62
2021/12/11 05:39:08;;;;;;;44.57;23.17;;;3.10;99.90;;;;;;5070945;28;20491;-62
2021/12/11 05:41:38;;;;;;;41.50;20.97;;;3.00;99.90;;;;;;5072673;28;20590;-62
2021/12/11 05:44:08;;;;;;;38.20;20.17;;;3.10;99.90;;;;;;5069266;28;20476;-62
2021/12/11 05:46:38;;;;;;;40.47;19.83;;;3.30;99.90;;;;;;5072304;28;20477;-60
2021/12/11 05:49:07;;;;;;;42.27;21.57;;;3.20;99.90;;;;;;5077596;28;20479;-62
2021/12/11 05:51:39;;;;;;;43.53;23.80;;;3.40;99.90;;;;;;5068472;28;20476;-62
2021/12/11 05:54:10;;;;;;;41.63;21.47;;;3.30;99.90;;;;;;5064208;28;20556;-62
2021/12/11 05:56:40;;;;;;;44.13;21.90;;;3.30;99.90;;;;;;5072472;28;20477;-62
2021/12/11 05:59:11;;;;;;;50.47;24.17;;;3.70;99.90;;;;;;5066342;28;20472;-62
2021/12/11 06:01:42;;;;;;;43.80;23.63;;;3.60;99.90;;;;;;5064098;28;20560;-62
2021/12/11 06:04:14;;;;;;;40.53;22.30;;;3.60;99.90;;;;;;5067546;28;20485;-62
2021/12/11 06:06:44;;;;;;;37.23;20.43;;;3.40;99.90;;;;;;5066786;28;21063;-62
2021/12/11 06:09:15;;;;;;;43.53;22.87;;;3.40;99.90;;;;;;5076614;28;20478;-60
2021/12/11 06:11:47;;;;;;;37.20;19.57;;;3.40;99.90;;;;;;5068980;28;21007;-62
2021/12/11 06:14:17;;;;;;;40.30;21.43;;;3.60;99.90;;;;;;5065415;28;20563;-62
2021/12/11 06:16:46;;;;;;;38.13;21.13;;;3.30;99.90;;;;;;5067239;28;20482;-61
2021/12/11 06:19:19;;;;;;;45.30;22.53;;;3.30;99.90;;;;;;5065676;28;20567;-62
2021/12/11 06:21:47;;;;;;;42.10;21.30;;;3.40;99.90;;;;;;5064513;28;20571;-62
2021/12/11 06:24:15;;;;;;;43.13;23.70;;;3.50;99.90;;;;;;5065682;28;20483;-62
2021/12/11 06:26:45;;;;;;;38.27;20.87;;;3.30;99.90;;;;;;5067259;28;20504;-61
2021/12/11 06:29:13;;;;;;;38.87;22.40;;;3.40;99.90;;;;;;5065718;28;20995;-61
2021/12/11 06:31:44;;;;;;;37.27;20.90;;;3.30;99.90;;;;;;5066408;28;20988;-62
2021/12/11 06:34:13;;;;;;;44.00;21.97;;;3.30;99.90;;;;;;5069643;28;20472;-62
2021/12/11 06:36:43;;;;;;;39.90;22.20;;;3.40;99.90;;;;;;5064657;28;20549;-62
2021/12/11 06:39:15;;;;;;;43.10;21.57;;;3.30;99.90;;;;;;5068881;28;20552;-62
2021/12/11 06:41:50;;;;;;;37.10;20.07;;;3.10;99.90;;;;;;5065050;28;20495;-62
2021/12/11 06:44:19;;;;;;;35.40;19.53;;;3.10;99.90;;;;;;5067044;28;20469;-62
2021/12/11 06:46:52;;;;;;;34.70;20.17;;;3.20;99.90;;;;;;5064706;28;20469;-61
2021/12/11 06:49:20;;;;;;;38.07;19.90;;;3.00;99.90;;;;;;5068094;28;20479;-62
2021/12/11 06:51:48;;;;;;;36.10;20.63;;;3.10;99.90;;;;;;5068846;28;20579;-62
2021/12/11 06:54:16;;;;;;;36.60;19.63;;;3.30;99.90;;;;;;5065016;28;20472;-62
2021/12/11 06:56:46;;;;;;;39.30;20.47;;;3.20;99.90;;;;;;5068200;28;20508;-62
2021/12/11 06:59:15;;;;;;;33.73;18.53;;;3.10;99.90;;;;;;5066170;28;20558;-61
2021/12/11 07:01:43;;;;;;;38.77;21.50;;;3.30;99.90;;;;;;5064476;28;20470;-61
2021/12/11 07:04:12;;;;;;;34.73;18.67;;;3.10;99.90;;;;;;5065162;28;20477;-62
2021/12/11 07:06:43;;;;;;;33.17;19.40;;;3.20;99.90;;;;;;5066658;28;20486;-62
2021/12/11 07:09:14;;;;;;;37.53;18.77;;;3.20;99.90;;;;;;5073456;28;20987;-60
2021/12/11 07:11:44;;;;;;;39.07;21.87;;;3.50;99.90;;;;;;5064611;28;20489;-62
2021/12/11 07:14:17;;;;;;;37.77;20.67;;;3.30;99.90;;;;;;5065449;28;20486;-61
2021/12/11 07:16:45;;;;;;;38.27;20.93;;;3.50;99.90;;;;;;5071615;28;21053;-62
2021/12/11 07:19:14;;;;;;;33.83;19.27;;;3.50;99.90;;;;;;5064864;28;20488;-62
2021/12/11 07:21:44;;;;;;;32.97;18.67;;;3.50;99.90;;;;;;5065694;28;20591;-62
2021/12/11 07:24:15;;;;;;;35.67;19.63;;;3.40;99.90;;;;;;5077382;28;20499;-62
2021/12/11 07:26:43;;;;;;;33.03;18.80;;;3.20;99.90;;;;;;5079793;28;20585;-62
2021/12/11 07:29:15;;;;;;;38.33;21.27;;;3.30;99.90;;;;;;5072730;28;20473;-62
2021/12/11 07:31:45;;;;;;;40.57;21.43;;;3.20;99.90;;;;;;5072898;28;20463;-62
2021/12/11 07:34:16;;;;;;;34.43;18.83;;;3.20;99.90;;;;;;5077645;28;21035;-62
2021/12/11 07:36:45;;;;;;;35.37;19.23;;;3.10;99.90;;;;;;5074570;28;20483;-62
2021/12/11 07:39:17;;;;;;;35.63;18.93;;;3.00;99.90;;;;;;5078008;28;20549;-62
2021/12/11 07:41:47;;;;;;;37.70;21.47;;;3.00;99.90;;;;;;5065036;28;20561;-62
2021/12/11 07:44:16;;;;;;;34.73;18.33;;;3.10;99.90;;;;;;5067632;28;20476;-62
2021/12/11 07:46:45;;;;;;;34.30;18.90;;;3.10;99.90;;;;;;5068919;28;21113;-62
2021/12/11 07:49:13;;;;;;;37.70;20.40;;;3.00;99.90;;;;;;5071440;28;20847;-61
2021/12/11 07:51:42;;;;;;;37.97;20.40;;;3.00;99.90;;;;;;5069819;28;20547;-61
2021/12/11 07:54:10;;;;;;;35.67;20.33;;;3.10;99.90;;;;;;5069103;28;20484;-62
2021/12/11 07:56:39;;;;;;;32.87;18.63;;;3.10;99.90;;;;;;5051700;28;20521;-61
2021/12/11 07:59:09;;;;;;;37.10;20.90;;;3.10;99.90;;;;;;5053227;28;20877;-62
2021/12/11 08:01:42;;;;;;;34.83;19.70;;;3.10;99.90;;;;;;5054844;28;20628;-62
2021/12/11 08:04:10;;;;;;;33.47;18.90;;;3.00;99.90;;;;;;5054234;28;20519;-62
2021/12/11 08:06:40;;;;;;;33.30;20.33;;;3.10;99.90;;;;;;5054042;28;20471;-61
2021/12/11 08:09:12;;;;;;;36.17;19.87;;;3.10;99.90;;;;;;5055120;28;20572;-62
2021/12/11 08:11:42;;;;;;;34.87;19.90;;;3.00;99.90;;;;;;5053472;28;20630;-61
2021/12/11 08:14:11;;;;;;;35.83;18.70;;;3.10;99.90;;;;;;5052389;28;20479;-62
2021/12/11 08:16:46;;;;;;;42.30;20.90;;;3.10;99.90;;;;;;5052942;28;20758;-61
2021/12/11 08:19:16;;;;;;;37.03;20.40;;;3.10;99.90;;;;;;5055016;28;20671;-62
2021/12/11 08:21:46;;;;;;;37.73;21.60;;;3.10;99.90;;;;;;5052376;28;20612;-62
2021/12/11 08:24:15;;;;;;;36.10;20.43;;;3.10;99.90;;;;;;5052013;28;20493;-61
2021/12/11 08:26:44;;;;;;;36.07;20.33;;;3.10;99.90;;;;;;5053634;28;20480;-62
2021/12/11 08:29:15;;;;;;;35.00;20.93;;;3.00;99.90;;;;;;5053550;28;20482;-62
2021/12/11 08:31:48;;;;;;;33.17;20.30;;;3.00;99.90;;;;;;5052549;28;20516;-61
2021/12/11 08:34:16;;;;;;;36.33;20.60;;;3.10;99.90;;;;;;5052721;28;20491;-62
2021/12/11 08:36:45;;;;;;;36.30;21.00;;;3.10;99.90;;;;;;5054362;28;21010;-61
2021/12/11 08:39:17;;;;;;;36.30;20.70;;;3.10;99.90;;;;;;5054130;28;20898;-62
2021/12/11 08:41:47;;;;;;;37.13;21.33;;;3.10;99.90;;;;;;5054064;28;20483;-61
2021/12/11 08:44:18;;;;;;;35.33;20.90;;;3.20;99.90;;;;;;5053089;28;20477;-61
2021/12/11 08:46:50;;;;;;;37.73;21.90;;;3.20;99.90;;;;;;5053098;28;20484;-62
2021/12/11 08:49:21;;;;;;;34.00;20.47;;;3.10;99.90;;;;;;5054261;28;20975;-62
2021/12/11 08:51:53;;;;;;;39.20;21.83;;;3.20;99.90;;;;;;5053039;28;20938;-61
2021/12/11 08:54:24;;;;;;;37.93;21.47;;;3.20;99.90;;;;;;5051639;28;20600;-62
2021/12/11 08:56:52;;;;;;;31.60;18.87;;;3.20;99.90;;;;;;5052628;28;21503;-61
2021/12/11 08:59:22;;;;;;;35.53;21.53;;;3.30;99.90;;;;;;5052451;28;20484;-62
2021/12/11 09:01:56;;;;;;;34.20;19.83;;;3.30;99.90;;;;;;5053051;28;21786;-62
2021/12/11 09:04:28;;;;;;;34.70;21.70;;;3.30;99.90;;;;;;5051370;28;20893;-62
2021/12/11 09:07:00;;;;;;;36.47;22.20;;;3.40;99.90;;;;;;5053500;28;20714;-61
2021/12/11 09:09:32;;;;;;;38.27;22.07;;;3.40;99.90;;;;;;5053419;28;20588;-62
2021/12/11 09:12:06;;;;;;;33.57;20.90;;;3.40;99.90;;;;;;5052929;28;20559;-61
2021/12/11 09:14:40;;;;;;;34.67;20.37;;;3.30;99.90;;;;;;5052124;28;20477;-62
2021/12/11 09:17:15;;;;;;;36.50;21.17;;;3.40;99.90;;;;;;5052597;28;20488;-62
2021/12/11 09:19:48;;;;;;;38.13;22.03;;;3.40;99.90;;;;;;5053103;28;20588;-62
2021/12/11 09:22:22;;;;;;;40.63;22.70;;;3.40;99.90;;;;;;5052349;28;20568;-60
2021/12/11 09:24:54;;;;;;;34.03;20.80;;;3.30;99.90;;;;;;5051266;28;20516;-62
2021/12/11 09:27:26;;;;;;;35.93;22.77;;;3.30;99.90;;;;;;5053448;28;21580;-62
2021/12/11 09:29:58;;;;;;;37.30;22.37;;;3.30;99.90;;;;;;5053695;28;20469;-61
2021/12/11 09:32:32;;;;;;;34.73;21.13;;;3.30;99.90;;;;;;5052067;28;20523;-62
2021/12/11 09:35:07;;;;;;;33.40;22.17;;;3.30;99.90;;;;;;5051392;28;20495;-61
2021/12/11 09:37:36;;;;;;;35.47;22.17;;;3.40;99.90;;;;;;5052034;28;20471;-61
2021/12/11 09:40:10;;;;;;;32.30;20.90;;;3.50;99.90;;;;;;5053059;28;20489;-62
2021/12/11 09:42:38;;;;;;;39.97;22.20;;;3.60;99.90;;;;;;5053356;28;20486;-62
2021/12/11 09:45:11;;;;;;;32.73;22.13;;;3.80;99.90;;;;;;5051771;28;21038;-61
2021/12/11 09:47:50;;;;;;;36.50;21.23;;;4.00;99.90;;;;;;5052370;28;20498;-61
2021/12/11 09:50:25;;;;;;;32.03;21.10;;;3.90;99.90;;;;;;5052677;28;20872;-61
2021/12/11 09:52:54;;;;;;;32.40;20.70;;;3.90;99.90;;;;;;5053263;28;20580;-62
2021/12/11 09:55:25;;;;;;;28.67;19.97;;;3.80;99.90;;;;;;5049947;28;20716;-61
2021/12/11 09:57:57;;;;;;;34.03;21.93;;;3.90;99.90;;;;;;5052618;28;20480;-62
2021/12/11 10:00:30;;;;;;;30.93;20.07;;;3.90;99.90;;;;;;5052523;28;20468;-61
2021/12/11 10:03:00;;;;;;;32.07;21.37;;;3.90;99.90;;;;;;5052233;28;20569;-62
2021/12/11 10:05:35;;;;;;;30.00;19.57;;;3.80;99.90;;;;;;5051161;28;20483;-62
2021/12/11 10:08:26;;;;;;;30.03;20.40;;;3.80;99.90;;;;;;5051708;28;20483;-61
2021/12/11 10:11:04;;;;;;;29.50;19.77;;;3.80;99.90;;;;;;5052198;28;20483;-62
2021/12/11 10:13:35;;;;;;;33.43;21.20;;;3.80;99.90;;;;;;5052427;28;21231;-61
2021/12/11 10:16:05;;;;;;;28.67;20.20;;;3.80;99.90;;;;;;5050867;28;21088;-61
2021/12/11 10:18:34;;;;;;;27.47;20.33;;;3.80;99.90;;;;;;5051850;28;20981;-61
2021/12/11 10:21:06;;;;;;;31.27;20.90;;;3.90;99.90;;;;;;5052443;28;20483;-62
2021/12/11 10:23:37;;;;;;;31.53;21.07;;;3.90;99.90;;;;;;5029870;28;20490;-62
2021/12/11 10:26:10;;;;;;;32.07;21.73;;;3.90;99.90;;;;;;5048330;28;20484;-60
2021/12/11 10:28:41;;;;;;;31.47;21.03;;;3.80;99.90;;;;;;5051899;28;20486;-62
2021/12/11 10:31:17;;;;;;;32.07;20.50;;;3.90;99.90;;;;;;5051533;28;21296;-62
2021/12/11 10:33:46;;;;;;;28.57;20.27;;;3.90;99.90;;;;;;5052574;28;20481;-62
2021/12/11 10:36:25;;;;;;;32.30;21.00;;;3.80;99.90;;;;;;5047854;28;20848;-62
2021/12/11 10:38:56;;;;;;;31.10;20.87;;;3.90;99.90;;;;;;5052324;28;20487;-62
2021/12/11 10:41:26;;;;;;;28.33;21.13;;;3.90;99.90;;;;;;5050269;28;20490;-62
2021/12/11 10:43:57;;;;;;;28.13;19.67;;;3.90;99.90;;;;;;5052073;28;20478;-62
2021/12/11 10:46:31;;;;;;;30.47;19.40;;;4.00;99.90;;;;;;5047673;28;20560;-61
2021/12/11 10:49:01;;;;;;;29.67;19.53;;;4.00;99.90;;;;;;5046479;28;20486;-62
2021/12/11 10:51:32;;;;;;;29.20;19.87;;;4.00;99.90;;;;;;5047516;28;20480;-62
2021/12/11 10:54:01;;;;;;;31.27;19.90;;;4.00;99.90;;;;;;5055224;28;20551;-62
2021/12/11 10:56:29;;;;;;;28.87;20.53;;;4.00;99.90;;;;;;5043879;28;20995;-62
2021/12/11 10:59:00;;;;;;;30.83;20.33;;;4.00;99.90;;;;;;5052309;28;20483;-62
2021/12/11 11:01:32;;;;;;;29.40;19.70;;;4.00;99.90;;;;;;5054110;28;20481;-62
2021/12/11 11:04:04;;;;;;;28.83;19.33;;;4.00;99.90;;;;;;5057985;28;20492;-62
2021/12/11 11:06:32;;;;;;;27.60;20.13;;;4.10;99.90;;;;;;5058129;28;21049;-62
2021/12/11 11:09:01;;;;;;;29.40;20.77;;;4.10;99.90;;;;;;5068741;28;20474;-61
2021/12/11 11:11:32;;;;;;;31.17;20.87;;;4.10;99.90;;;;;;5069379;28;20901;-62
2021/12/11 11:14:01;;;;;;;31.40;20.33;;;4.30;99.90;;;;;;5069971;28;20476;-62
2021/12/11 11:16:32;;;;;;;33.97;21.03;;;4.20;99.90;;;;;;5071844;28;20469;-61
2021/12/11 11:19:00;;;;;;;26.63;20.07;;;4.20;99.90;;;;;;5073111;28;20513;-62
2021/12/11 11:21:31;;;;;;;30.37;19.67;;;4.20;99.90;;;;;;5074317;28;20476;-62
2021/12/11 11:23:59;;;;;;;29.63;19.27;;;4.30;99.90;;;;;;5077671;28;20503;-61
2021/12/11 11:26:35;;;;;;;28.93;18.93;;;4.30;99.90;;;;;;5074199;28;20514;-62
2021/12/11 11:29:06;;;;;;;23.97;18.40;;;4.40;99.90;;;;;;5074996;28;20511;-62
2021/12/11 11:31:40;;;;;;;31.83;19.90;;;4.40;99.90;;;;;;5069214;28;20523;-62
2021/12/11 11:34:13;;;;;;;26.70;19.27;;;4.40;99.90;;;;;;5071989;28;20480;-62
2021/12/11 11:36:42;;;;;;;24.27;17.93;;;4.40;99.90;;;;;;5065689;28;20579;-62
2021/12/11 11:39:20;;;;;;;29.23;18.53;;;4.40;99.90;;;;;;5067196;28;20495;-62
2021/12/11 11:41:53;;;;;;;26.17;17.83;;;4.50;99.90;;;;;;5065317;28;20523;-61
2021/12/11 11:44:24;;;;;;;27.67;19.30;;;4.50;99.90;;;;;;5067195;28;20467;-62
2021/12/11 11:46:55;;;;;;;25.70;18.13;;;4.50;99.90;;;;;;5057890;28;21004;-62
2021/12/11 11:49:24;;;;;;;26.67;18.13;;;4.50;99.90;;;;;;5073112;28;20483;-62
2021/12/11 11:51:56;;;;;;;24.77;19.03;;;4.60;99.90;;;;;;5068725;28;20462;-62
2021/12/11 11:54:27;;;;;;;27.97;18.33;;;4.50;99.90;;;;;;5070941;28;20538;-62
2021/12/11 11:57:00;;;;;;;28.23;17.90;;;4.50;99.90;;;;;;5074730;28;20519;-62
2021/12/11 11:59:29;;;;;;;26.83;16.83;;;4.50;99.90;;;;;;5069814;28;20524;-62
2021/12/11 12:02:04;;;;;;;26.50;17.07;;;4.50;99.90;;;;;;5073340;28;20834;-63
2021/12/11 12:04:35;;;;;;;25.57;17.30;;;4.60;99.90;;;;;;5071877;28;20465;-62
2021/12/11 12:07:05;;;;;;;27.47;17.17;;;4.50;99.90;;;;;;5073500;28;20758;-62
2021/12/11 12:09:38;;;;;;;27.10;18.40;;;4.50;99.90;;;;;;5080083;28;20844;-62
2021/12/11 12:12:10;;;;;;;26.13;17.33;;;4.50;99.90;;;;;;5073685;28;20497;-63
2021/12/11 12:14:40;;;;;;;24.93;16.57;;;4.40;99.90;;;;;;5064327;28;20480;-61
2021/12/11 12:17:13;;;;;;;25.87;18.03;;;4.50;99.90;;;;;;5072753;28;21031;-62
2021/12/11 12:19:41;;;;;;;25.40;17.17;;;4.50;99.90;;;;;;5067233;28;20504;-62
2021/12/11 12:22:12;;;;;;;24.17;17.83;;;4.50;99.90;;;;;;5075818;28;20926;-61
2021/12/11 12:24:44;;;;;;;24.57;17.17;;;4.50;99.90;;;;;;5070257;28;21014;-62
2021/12/11 12:27:17;;;;;;;25.73;17.40;;;4.50;99.90;;;;;;5069003;28;21055;-62
2021/12/11 12:29:47;;;;;;;24.07;16.50;;;4.50;99.90;;;;;;5060119;28;20568;-62
2021/12/11 12:32:20;;;;;;;31.53;19.83;;;4.50;99.90;;;;;;5066161;28;20910;-62
2021/12/11 12:34:52;;;;;;;25.73;19.03;;;4.50;99.90;;;;;;5069284;28;20511;-62
2021/12/11 12:37:22;;;;;;;28.97;18.77;;;4.50;99.90;;;;;;5068268;28;20976;-62
2021/12/11 12:39:53;;;;;;;29.83;17.63;;;4.50;99.90;;;;;;5074193;28;20565;-62
2021/12/11 12:42:32;;;;;;;29.70;18.03;;;4.50;99.90;;;;;;5067652;28;20568;-62
2021/12/11 12:45:05;;;;;;;24.17;17.00;;;4.50;99.90;;;;;;5072894;28;20495;-62
2021/12/11 12:47:37;;;;;;;26.63;16.80;;;4.60;99.90;;;;;;5077681;28;20465;-61
2021/12/11 12:50:10;;;;;;;25.30;16.67;;;4.50;99.90;;;;;;5072933;28;20480;-62
2021/12/11 12:52:42;;;;;;;25.30;16.80;;;4.60;99.90;;;;;;5076210;28;20566;-62
2021/12/11 12:55:22;;;;;;;26.20;16.63;;;4.70;99.90;;;;;;5057755;28;20497;-62
2021/12/11 12:57:53;;;;;;;25.17;16.97;;;4.80;99.90;;;;;;5062690;28;20480;-63
2021/12/11 13:00:25;;;;;;;23.23;15.73;;;4.70;99.90;;;;;;5066980;28;20522;-62
2021/12/11 13:02:58;;;;;;;24.43;16.13;;;4.80;99.90;;;;;;5060384;28;20498;-62